sensor_id;sensor_type;location;lat;lon;timestamp;P1;durP1;ratioP1;P2;durP2;ratioP2
2872;SDS011;1444;49.166;7.312;2023-12-20T00:00:00;5.50;;;4.07;;
2872;SDS011;1444;49.166;7.312;2023-12-20T00:02:27;8.90;;;3.73;;
2872;SDS011;1444;49.166;7.312;2023-12-20T00:04:54;5.30;;;3.00;;
2872;SDS011;1444;49.166;7.312;2023-12-20T00:07:21;6.70;;;4.37;;
2872;SDS011;1444;49.166;7.312;2023-12-20T00:09:47;5.83;;;4.77;;
2872;SDS011;1444;49.166;7.312;2023-12-20T00:12:14;3.60;;;3.27;;
2872;SDS011;1444;49.166;7.312;2023-12-20T00:14:42;5.23;;;3.43;;
2872;SDS011;1444;49.166;7.312;2023-12-20T00:17:09;6.00;;;4.50;;
2872;SDS011;1444;49.166;7.312;2023-12-20T00:19:36;4.23;;;3.63;;
2872;SDS011;1444;49.166;7.312;2023-12-20T00:22:03;7.10;;;5.00;;
2872;SDS011;1444;49.166;7.312;2023-12-20T00:24:30;15.27;;;4.20;;
2872;SDS011;1444;49.166;7.312;2023-12-20T00:26:56;3.60;;;2.80;;
2872;SDS011;1444;49.166;7.312;2023-12-20T00:29:23;12.77;;;4.27;;
2872;SDS011;1444;49.166;7.312;2023-12-20T00:31:51;5.07;;;3.87;;
2872;SDS011;1444;49.166;7.312;2023-12-20T00:34:18;5.50;;;4.43;;
2872;SDS011;1444;49.166;7.312;2023-12-20T00:36:46;4.00;;;2.90;;
2872;SDS011;1444;49.166;7.312;2023-12-20T00:39:13;17.63;;;3.27;;
2872;SDS011;1444;49.166;7.312;2023-12-20T00:41:40;3.90;;;3.20;;
2872;SDS011;1444;49.166;7.312;2023-12-20T00:44:06;5.30;;;2.97;;
2872;SDS011;1444;49.166;7.312;2023-12-20T00:46:33;5.30;;;2.53;;
2872;SDS011;1444;49.166;7.312;2023-12-20T00:49:02;12.20;;;3.30;;
2872;SDS011;1444;49.166;7.312;2023-12-20T00:51:28;3.40;;;1.63;;
2872;SDS011;1444;49.166;7.312;2023-12-20T00:53:55;3.97;;;2.70;;
2872;SDS011;1444;49.166;7.312;2023-12-20T00:56:22;4.27;;;2.63;;
2872;SDS011;1444;49.166;7.312;2023-12-20T00:58:49;19.23;;;4.63;;
2872;SDS011;1444;49.166;7.312;2023-12-20T01:01:15;3.07;;;2.77;;
2872;SDS011;1444;49.166;7.312;2023-12-20T01:03:42;6.20;;;3.13;;
2872;SDS011;1444;49.166;7.312;2023-12-20T01:06:10;8.37;;;3.30;;
2872;SDS011;1444;49.166;7.312;2023-12-20T01:08:37;2.97;;;2.00;;
2872;SDS011;1444;49.166;7.312;2023-12-20T01:11:04;7.37;;;3.03;;
2872;SDS011;1444;49.166;7.312;2023-12-20T01:13:31;6.23;;;3.20;;
2872;SDS011;1444;49.166;7.312;2023-12-20T01:15:58;3.63;;;3.30;;
2872;SDS011;1444;49.166;7.312;2023-12-20T01:18:25;4.67;;;3.57;;
2872;SDS011;1444;49.166;7.312;2023-12-20T01:20:51;6.80;;;3.90;;
2872;SDS011;1444;49.166;7.312;2023-12-20T01:23:20;2.83;;;2.43;;
2872;SDS011;1444;49.166;7.312;2023-12-20T01:25:48;3.60;;;3.27;;
2872;SDS011;1444;49.166;7.312;2023-12-20T01:28:15;4.50;;;3.90;;
2872;SDS011;1444;49.166;7.312;2023-12-20T01:30:41;4.60;;;3.30;;
2872;SDS011;1444;49.166;7.312;2023-12-20T01:33:08;15.60;;;5.07;;
2872;SDS011;1444;49.166;7.312;2023-12-20T01:35:35;6.23;;;2.83;;
2872;SDS011;1444;49.166;7.312;2023-12-20T01:38:02;5.83;;;3.30;;
2872;SDS011;1444;49.166;7.312;2023-12-20T01:40:30;7.67;;;4.00;;
2872;SDS011;1444;49.166;7.312;2023-12-20T01:42:58;3.37;;;2.70;;
2872;SDS011;1444;49.166;7.312;2023-12-20T01:45:25;8.73;;;4.27;;
2872;SDS011;1444;49.166;7.312;2023-12-20T01:47:52;2.37;;;2.17;;
2872;SDS011;1444;49.166;7.312;2023-12-20T01:50:20;6.13;;;1.97;;
2872;SDS011;1444;49.166;7.312;2023-12-20T01:52:47;3.50;;;2.90;;
2872;SDS011;1444;49.166;7.312;2023-12-20T01:55:17;19.10;;;4.07;;
2872;SDS011;1444;49.166;7.312;2023-12-20T01:57:45;4.83;;;3.00;;
2872;SDS011;1444;49.166;7.312;2023-12-20T02:00:13;3.80;;;3.43;;
2872;SDS011;1444;49.166;7.312;2023-12-20T02:02:41;9.80;;;2.90;;
2872;SDS011;1444;49.166;7.312;2023-12-20T02:05:09;6.13;;;2.60;;
2872;SDS011;1444;49.166;7.312;2023-12-20T02:07:36;23.37;;;5.07;;
2872;SDS011;1444;49.166;7.312;2023-12-20T02:10:04;4.00;;;2.63;;
2872;SDS011;1444;49.166;7.312;2023-12-20T02:12:31;8.53;;;3.70;;
2872;SDS011;1444;49.166;7.312;2023-12-20T02:14:59;9.03;;;3.17;;
2872;SDS011;1444;49.166;7.312;2023-12-20T02:17:26;3.57;;;2.80;;
2872;SDS011;1444;49.166;7.312;2023-12-20T02:19:54;4.10;;;3.63;;
2872;SDS011;1444;49.166;7.312;2023-12-20T02:22:22;8.63;;;3.10;;
2872;SDS011;1444;49.166;7.312;2023-12-20T02:24:48;7.63;;;3.13;;
2872;SDS011;1444;49.166;7.312;2023-12-20T02:27:15;4.87;;;3.70;;
2872;SDS011;1444;49.166;7.312;2023-12-20T02:29:46;6.70;;;3.23;;
2872;SDS011;1444;49.166;7.312;2023-12-20T02:32:14;5.50;;;3.40;;
2872;SDS011;1444;49.166;7.312;2023-12-20T02:34:41;3.47;;;3.17;;
2872;SDS011;1444;49.166;7.312;2023-12-20T02:37:08;3.47;;;2.23;;
2872;SDS011;1444;49.166;7.312;2023-12-20T02:39:36;3.30;;;2.60;;
2872;SDS011;1444;49.166;7.312;2023-12-20T02:42:03;14.50;;;4.40;;
2872;SDS011;1444;49.166;7.312;2023-12-20T02:44:30;6.63;;;4.17;;
2872;SDS011;1444;49.166;7.312;2023-12-20T02:46:57;8.10;;;4.30;;
2872;SDS011;1444;49.166;7.312;2023-12-20T02:49:23;7.00;;;3.77;;
2872;SDS011;1444;49.166;7.312;2023-12-20T02:51:50;6.57;;;4.20;;
2872;SDS011;1444;49.166;7.312;2023-12-20T02:54:17;4.00;;;3.43;;
2872;SDS011;1444;49.166;7.312;2023-12-20T02:56:45;21.93;;;5.37;;
2872;SDS011;1444;49.166;7.312;2023-12-20T02:59:12;5.20;;;4.03;;
2872;SDS011;1444;49.166;7.312;2023-12-20T03:01:41;5.80;;;4.60;;
2872;SDS011;1444;49.166;7.312;2023-12-20T03:04:08;12.40;;;7.13;;
2872;SDS011;1444;49.166;7.312;2023-12-20T03:06:35;9.23;;;5.97;;
2872;SDS011;1444;49.166;7.312;2023-12-20T03:09:02;4.97;;;4.50;;
2872;SDS011;1444;49.166;7.312;2023-12-20T03:11:29;8.53;;;4.63;;
2872;SDS011;1444;49.166;7.312;2023-12-20T03:13:57;6.97;;;5.53;;
2872;SDS011;1444;49.166;7.312;2023-12-20T03:16:24;29.37;;;5.80;;
2872;SDS011;1444;49.166;7.312;2023-12-20T03:18:51;6.50;;;5.37;;
2872;SDS011;1444;49.166;7.312;2023-12-20T03:21:18;12.40;;;5.37;;
2872;SDS011;1444;49.166;7.312;2023-12-20T03:23:45;12.83;;;6.77;;
2872;SDS011;1444;49.166;7.312;2023-12-20T03:26:12;6.20;;;5.10;;
2872;SDS011;1444;49.166;7.312;2023-12-20T03:28:39;8.03;;;5.53;;
2872;SDS011;1444;49.166;7.312;2023-12-20T03:31:07;13.83;;;6.50;;
2872;SDS011;1444;49.166;7.312;2023-12-20T03:33:36;7.03;;;5.53;;
2872;SDS011;1444;49.166;7.312;2023-12-20T03:36:02;3.93;;;3.53;;
2872;SDS011;1444;49.166;7.312;2023-12-20T03:38:29;6.53;;;5.23;;
2872;SDS011;1444;49.166;7.312;2023-12-20T03:40:56;18.60;;;6.83;;
2872;SDS011;1444;49.166;7.312;2023-12-20T03:43:23;7.80;;;6.40;;
2872;SDS011;1444;49.166;7.312;2023-12-20T03:45:49;7.03;;;5.20;;
2872;SDS011;1444;49.166;7.312;2023-12-20T03:48:18;7.30;;;5.70;;
2872;SDS011;1444;49.166;7.312;2023-12-20T03:50:44;9.70;;;6.53;;
2872;SDS011;1444;49.166;7.312;2023-12-20T03:53:12;6.67;;;6.00;;
2872;SDS011;1444;49.166;7.312;2023-12-20T03:55:39;23.47;;;7.20;;
2872;SDS011;1444;49.166;7.312;2023-12-20T03:58:05;8.60;;;6.57;;
2872;SDS011;1444;49.166;7.312;2023-12-20T04:00:32;7.27;;;6.30;;
2872;SDS011;1444;49.166;7.312;2023-12-20T04:02:59;4.97;;;4.50;;
2872;SDS011;1444;49.166;7.312;2023-12-20T04:05:27;6.33;;;5.30;;
2872;SDS011;1444;49.166;7.312;2023-12-20T04:07:54;9.80;;;5.30;;
2872;SDS011;1444;49.166;7.312;2023-12-20T04:10:21;6.73;;;4.90;;
2872;SDS011;1444;49.166;7.312;2023-12-20T04:12:48;4.90;;;4.40;;
2872;SDS011;1444;49.166;7.312;2023-12-20T04:15:14;6.40;;;5.40;;
2872;SDS011;1444;49.166;7.312;2023-12-20T04:17:41;5.83;;;5.20;;
2872;SDS011;1444;49.166;7.312;2023-12-20T04:20:09;6.13;;;5.37;;
2872;SDS011;1444;49.166;7.312;2023-12-20T04:22:37;7.87;;;5.83;;
2872;SDS011;1444;49.166;7.312;2023-12-20T04:25:04;6.57;;;5.63;;
2872;SDS011;1444;49.166;7.312;2023-12-20T04:27:31;10.80;;;3.73;;
2872;SDS011;1444;49.166;7.312;2023-12-20T04:29:58;7.00;;;4.10;;
2872;SDS011;1444;49.166;7.312;2023-12-20T04:32:25;9.00;;;4.37;;
2872;SDS011;1444;49.166;7.312;2023-12-20T04:34:52;5.60;;;5.10;;
2872;SDS011;1444;49.166;7.312;2023-12-20T04:37:18;12.87;;;5.33;;
2872;SDS011;1444;49.166;7.312;2023-12-20T04:39:47;10.33;;;5.23;;
2872;SDS011;1444;49.166;7.312;2023-12-20T04:42:13;5.07;;;4.33;;
2872;SDS011;1444;49.166;7.312;2023-12-20T04:44:40;5.60;;;4.93;;
2872;SDS011;1444;49.166;7.312;2023-12-20T04:47:08;7.97;;;5.13;;
2872;SDS011;1444;49.166;7.312;2023-12-20T04:49:35;5.00;;;4.53;;
2872;SDS011;1444;49.166;7.312;2023-12-20T04:52:02;6.30;;;5.07;;
2872;SDS011;1444;49.166;7.312;2023-12-20T04:54:29;7.10;;;4.57;;
2872;SDS011;1444;49.166;7.312;2023-12-20T04:56:57;6.27;;;4.17;;
2872;SDS011;1444;49.166;7.312;2023-12-20T04:59:24;6.60;;;5.17;;
2872;SDS011;1444;49.166;7.312;2023-12-20T05:01:51;11.87;;;5.43;;
2872;SDS011;1444;49.166;7.312;2023-12-20T05:04:18;7.00;;;5.23;;
2872;SDS011;1444;49.166;7.312;2023-12-20T05:06:45;13.97;;;5.87;;
2872;SDS011;1444;49.166;7.312;2023-12-20T05:09:12;6.40;;;5.10;;
2872;SDS011;1444;49.166;7.312;2023-12-20T05:11:39;12.50;;;5.50;;
2872;SDS011;1444;49.166;7.312;2023-12-20T05:14:07;11.80;;;4.60;;
2872;SDS011;1444;49.166;7.312;2023-12-20T05:16:34;12.83;;;5.73;;
2872;SDS011;1444;49.166;7.312;2023-12-20T05:19:00;6.33;;;5.17;;
2872;SDS011;1444;49.166;7.312;2023-12-20T05:21:31;6.13;;;4.90;;
2872;SDS011;1444;49.166;7.312;2023-12-20T05:23:58;8.60;;;5.47;;
2872;SDS011;1444;49.166;7.312;2023-12-20T05:26:25;5.03;;;4.60;;
2872;SDS011;1444;49.166;7.312;2023-12-20T05:28:52;7.50;;;5.23;;
2872;SDS011;1444;49.166;7.312;2023-12-20T05:31:20;6.20;;;4.57;;
2872;SDS011;1444;49.166;7.312;2023-12-20T05:33:47;17.87;;;5.20;;
2872;SDS011;1444;49.166;7.312;2023-12-20T05:36:13;4.57;;;4.00;;
2872;SDS011;1444;49.166;7.312;2023-12-20T05:38:40;4.83;;;4.33;;
2872;SDS011;1444;49.166;7.312;2023-12-20T05:41:07;21.67;;;6.57;;
2872;SDS011;1444;49.166;7.312;2023-12-20T05:43:34;9.70;;;3.03;;
2872;SDS011;1444;49.166;7.312;2023-12-20T05:46:00;8.47;;;3.87;;
2872;SDS011;1444;49.166;7.312;2023-12-20T05:48:29;9.23;;;2.80;;
2872;SDS011;1444;49.166;7.312;2023-12-20T05:50:56;3.10;;;1.90;;
2872;SDS011;1444;49.166;7.312;2023-12-20T05:53:23;12.20;;;5.60;;
2872;SDS011;1444;49.166;7.312;2023-12-20T05:55:49;19.37;;;8.13;;
2872;SDS011;1444;49.166;7.312;2023-12-20T05:58:16;14.27;;;3.00;;
2872;SDS011;1444;49.166;7.312;2023-12-20T06:00:43;6.17;;;2.50;;
2872;SDS011;1444;49.166;7.312;2023-12-20T06:03:10;13.90;;;2.87;;
2872;SDS011;1444;49.166;7.312;2023-12-20T06:05:38;8.63;;;2.50;;
2872;SDS011;1444;49.166;7.312;2023-12-20T06:08:05;4.10;;;2.60;;
2872;SDS011;1444;49.166;7.312;2023-12-20T06:10:32;26.50;;;6.00;;
2872;SDS011;1444;49.166;7.312;2023-12-20T06:12:59;11.63;;;3.33;;
2872;SDS011;1444;49.166;7.312;2023-12-20T06:15:25;29.87;;;3.70;;
2872;SDS011;1444;49.166;7.312;2023-12-20T06:17:52;3.60;;;2.50;;
2872;SDS011;1444;49.166;7.312;2023-12-20T06:20:19;6.33;;;3.77;;
2872;SDS011;1444;49.166;7.312;2023-12-20T06:22:47;15.13;;;2.30;;
2872;SDS011;1444;49.166;7.312;2023-12-20T06:25:14;5.10;;;2.43;;
2872;SDS011;1444;49.166;7.312;2023-12-20T06:27:42;3.23;;;2.30;;
2872;SDS011;1444;49.166;7.312;2023-12-20T06:30:09;19.23;;;3.07;;
2872;SDS011;1444;49.166;7.312;2023-12-20T06:32:36;7.50;;;2.70;;
2872;SDS011;1444;49.166;7.312;2023-12-20T06:35:04;4.27;;;1.80;;
2872;SDS011;1444;49.166;7.312;2023-12-20T06:37:32;10.47;;;2.57;;
2872;SDS011;1444;49.166;7.312;2023-12-20T06:40:00;8.43;;;2.10;;
2872;SDS011;1444;49.166;7.312;2023-12-20T06:42:27;9.77;;;1.83;;
2872;SDS011;1444;49.166;7.312;2023-12-20T06:44:54;2.33;;;1.63;;
2872;SDS011;1444;49.166;7.312;2023-12-20T06:47:21;5.70;;;1.70;;
2872;SDS011;1444;49.166;7.312;2023-12-20T06:49:47;8.23;;;3.10;;
2872;SDS011;1444;49.166;7.312;2023-12-20T06:52:14;7.63;;;2.20;;
2872;SDS011;1444;49.166;7.312;2023-12-20T06:54:41;11.33;;;2.33;;
2872;SDS011;1444;49.166;7.312;2023-12-20T06:57:10;11.33;;;2.27;;
2872;SDS011;1444;49.166;7.312;2023-12-20T06:59:38;5.80;;;1.90;;
2872;SDS011;1444;49.166;7.312;2023-12-20T07:02:05;4.77;;;1.93;;
2872;SDS011;1444;49.166;7.312;2023-12-20T07:04:32;7.57;;;2.90;;
2872;SDS011;1444;49.166;7.312;2023-12-20T07:06:59;4.40;;;2.63;;
2872;SDS011;1444;49.166;7.312;2023-12-20T07:09:26;11.73;;;2.70;;
2872;SDS011;1444;49.166;7.312;2023-12-20T07:11:53;3.57;;;2.33;;
2872;SDS011;1444;49.166;7.312;2023-12-20T07:14:21;4.17;;;2.17;;
2872;SDS011;1444;49.166;7.312;2023-12-20T07:16:47;18.57;;;2.80;;
2872;SDS011;1444;49.166;7.312;2023-12-20T07:19:14;4.23;;;2.33;;
2872;SDS011;1444;49.166;7.312;2023-12-20T07:21:41;4.77;;;2.20;;
2872;SDS011;1444;49.166;7.312;2023-12-20T07:24:09;3.80;;;2.30;;
2872;SDS011;1444;49.166;7.312;2023-12-20T07:26:36;6.50;;;2.43;;
2872;SDS011;1444;49.166;7.312;2023-12-20T07:29:04;14.50;;;2.90;;
2872;SDS011;1444;49.166;7.312;2023-12-20T07:31:33;8.70;;;3.60;;
2872;SDS011;1444;49.166;7.312;2023-12-20T07:34:00;6.83;;;2.90;;
2872;SDS011;1444;49.166;7.312;2023-12-20T07:36:26;10.90;;;2.90;;
2872;SDS011;1444;49.166;7.312;2023-12-20T07:38:53;6.73;;;3.30;;
2872;SDS011;1444;49.166;7.312;2023-12-20T07:41:20;8.53;;;3.37;;
2872;SDS011;1444;49.166;7.312;2023-12-20T07:43:48;10.47;;;3.57;;
2872;SDS011;1444;49.166;7.312;2023-12-20T07:46:15;8.03;;;3.30;;
2872;SDS011;1444;49.166;7.312;2023-12-20T07:48:44;8.17;;;3.57;;
2872;SDS011;1444;49.166;7.312;2023-12-20T07:51:11;3.33;;;2.13;;
2872;SDS011;1444;49.166;7.312;2023-12-20T07:53:38;7.13;;;3.13;;
2872;SDS011;1444;49.166;7.312;2023-12-20T07:56:13;7.83;;;2.20;;
2872;SDS011;1444;49.166;7.312;2023-12-20T07:58:40;12.23;;;4.03;;
2872;SDS011;1444;49.166;7.312;2023-12-20T08:01:07;6.03;;;3.20;;
2872;SDS011;1444;49.166;7.312;2023-12-20T08:03:34;5.60;;;2.77;;
2872;SDS011;1444;49.166;7.312;2023-12-20T08:06:02;8.20;;;3.67;;
2872;SDS011;1444;49.166;7.312;2023-12-20T08:08:29;15.77;;;2.70;;
2872;SDS011;1444;49.166;7.312;2023-12-20T08:10:56;9.00;;;2.90;;
2872;SDS011;1444;49.166;7.312;2023-12-20T08:13:25;14.67;;;3.80;;
2872;SDS011;1444;49.166;7.312;2023-12-20T08:15:52;5.60;;;2.97;;
2872;SDS011;1444;49.166;7.312;2023-12-20T08:18:21;12.47;;;4.03;;
2872;SDS011;1444;49.166;7.312;2023-12-20T08:20:48;9.73;;;4.30;;
2872;SDS011;1444;49.166;7.312;2023-12-20T08:23:19;3.40;;;2.70;;
2872;SDS011;1444;49.166;7.312;2023-12-20T08:25:46;13.33;;;3.90;;
2872;SDS011;1444;49.166;7.312;2023-12-20T08:28:13;7.40;;;3.57;;
2872;SDS011;1444;49.166;7.312;2023-12-20T08:30:40;3.83;;;2.67;;
2872;SDS011;1444;49.166;7.312;2023-12-20T08:33:07;34.23;;;4.00;;
2872;SDS011;1444;49.166;7.312;2023-12-20T08:35:36;8.53;;;2.80;;
2872;SDS011;1444;49.166;7.312;2023-12-20T08:38:03;4.60;;;3.30;;
2872;SDS011;1444;49.166;7.312;2023-12-20T08:40:31;6.47;;;2.97;;
2872;SDS011;1444;49.166;7.312;2023-12-20T08:42:58;5.90;;;3.67;;
2872;SDS011;1444;49.166;7.312;2023-12-20T08:45:25;12.03;;;3.63;;
2872;SDS011;1444;49.166;7.312;2023-12-20T08:47:51;10.53;;;4.40;;
2872;SDS011;1444;49.166;7.312;2023-12-20T08:50:18;5.60;;;3.17;;
2872;SDS011;1444;49.166;7.312;2023-12-20T08:52:45;5.97;;;3.30;;
2872;SDS011;1444;49.166;7.312;2023-12-20T08:55:12;37.73;;;3.93;;
2872;SDS011;1444;49.166;7.312;2023-12-20T08:57:41;7.67;;;2.97;;
2872;SDS011;1444;49.166;7.312;2023-12-20T09:00:09;2.83;;;2.27;;
2872;SDS011;1444;49.166;7.312;2023-12-20T09:02:36;6.97;;;2.30;;
2872;SDS011;1444;49.166;7.312;2023-12-20T09:05:04;5.80;;;4.00;;
2872;SDS011;1444;49.166;7.312;2023-12-20T09:07:31;15.53;;;3.60;;
2872;SDS011;1444;49.166;7.312;2023-12-20T09:09:58;5.50;;;2.40;;
2872;SDS011;1444;49.166;7.312;2023-12-20T09:12:24;28.23;;;4.13;;
2872;SDS011;1444;49.166;7.312;2023-12-20T09:14:53;15.00;;;4.00;;
2872;SDS011;1444;49.166;7.312;2023-12-20T09:17:20;3.20;;;2.10;;
2872;SDS011;1444;49.166;7.312;2023-12-20T09:19:48;2.43;;;2.23;;
2872;SDS011;1444;49.166;7.312;2023-12-20T09:22:15;8.10;;;3.33;;
2872;SDS011;1444;49.166;7.312;2023-12-20T09:24:42;6.20;;;2.70;;
2872;SDS011;1444;49.166;7.312;2023-12-20T09:27:09;10.87;;;2.30;;
2872;SDS011;1444;49.166;7.312;2023-12-20T09:29:36;12.00;;;2.50;;
2872;SDS011;1444;49.166;7.312;2023-12-20T09:32:05;6.40;;;2.93;;
2872;SDS011;1444;49.166;7.312;2023-12-20T09:34:32;8.17;;;2.57;;
2872;SDS011;1444;49.166;7.312;2023-12-20T09:36:58;10.87;;;3.53;;
2872;SDS011;1444;49.166;7.312;2023-12-20T09:39:24;4.70;;;2.13;;
2872;SDS011;1444;49.166;7.312;2023-12-20T09:41:53;36.63;;;4.60;;
2872;SDS011;1444;49.166;7.312;2023-12-20T09:44:26;7.47;;;2.80;;
2872;SDS011;1444;49.166;7.312;2023-12-20T09:46:53;5.27;;;3.23;;
2872;SDS011;1444;49.166;7.312;2023-12-20T09:49:23;13.73;;;4.10;;
2872;SDS011;1444;49.166;7.312;2023-12-20T09:51:51;5.23;;;2.50;;
2872;SDS011;1444;49.166;7.312;2023-12-20T09:54:21;5.70;;;2.70;;
2872;SDS011;1444;49.166;7.312;2023-12-20T09:56:49;4.53;;;2.07;;
2872;SDS011;1444;49.166;7.312;2023-12-20T09:59:16;8.63;;;2.70;;
2872;SDS011;1444;49.166;7.312;2023-12-20T10:01:43;4.37;;;3.00;;
2872;SDS011;1444;49.166;7.312;2023-12-20T10:04:10;4.60;;;1.47;;
2872;SDS011;1444;49.166;7.312;2023-12-20T10:06:40;5.83;;;3.10;;
2872;SDS011;1444;49.166;7.312;2023-12-20T10:09:08;3.10;;;1.83;;
2872;SDS011;1444;49.166;7.312;2023-12-20T10:11:36;10.73;;;2.53;;
2872;SDS011;1444;49.166;7.312;2023-12-20T10:14:03;5.10;;;2.63;;
2872;SDS011;1444;49.166;7.312;2023-12-20T10:16:30;8.97;;;1.87;;
2872;SDS011;1444;49.166;7.312;2023-12-20T10:18:58;9.63;;;2.57;;
2872;SDS011;1444;49.166;7.312;2023-12-20T10:21:26;10.73;;;3.20;;
2872;SDS011;1444;49.166;7.312;2023-12-20T10:23:54;11.70;;;3.97;;
2872;SDS011;1444;49.166;7.312;2023-12-20T10:26:22;28.50;;;3.83;;
2872;SDS011;1444;49.166;7.312;2023-12-20T10:28:50;5.53;;;2.97;;
2872;SDS011;1444;49.166;7.312;2023-12-20T10:31:27;8.60;;;3.90;;
2872;SDS011;1444;49.166;7.312;2023-12-20T10:33:56;3.60;;;2.60;;
2872;SDS011;1444;49.166;7.312;2023-12-20T10:36:24;2.77;;;2.20;;
2872;SDS011;1444;49.166;7.312;2023-12-20T10:38:53;8.20;;;2.23;;
2872;SDS011;1444;49.166;7.312;2023-12-20T10:41:24;19.83;;;2.93;;
2872;SDS011;1444;49.166;7.312;2023-12-20T10:43:53;20.13;;;4.70;;
2872;SDS011;1444;49.166;7.312;2023-12-20T10:46:24;20.63;;;3.47;;
2872;SDS011;1444;49.166;7.312;2023-12-20T10:48:53;10.10;;;3.53;;
2872;SDS011;1444;49.166;7.312;2023-12-20T10:51:21;24.43;;;4.60;;
2872;SDS011;1444;49.166;7.312;2023-12-20T10:53:49;8.50;;;2.40;;
2872;SDS011;1444;49.166;7.312;2023-12-20T10:56:18;2.47;;;2.13;;
2872;SDS011;1444;49.166;7.312;2023-12-20T10:58:46;9.53;;;3.77;;
2872;SDS011;1444;49.166;7.312;2023-12-20T11:01:14;9.07;;;2.70;;
2872;SDS011;1444;49.166;7.312;2023-12-20T11:03:44;4.13;;;2.67;;
2872;SDS011;1444;49.166;7.312;2023-12-20T11:06:22;5.20;;;2.73;;
2872;SDS011;1444;49.166;7.312;2023-12-20T11:08:58;2.83;;;1.67;;
2872;SDS011;1444;49.166;7.312;2023-12-20T11:11:37;10.43;;;2.00;;
2872;SDS011;1444;49.166;7.312;2023-12-20T11:14:14;6.40;;;2.47;;
2872;SDS011;1444;49.166;7.312;2023-12-20T11:16:42;8.50;;;4.03;;
2872;SDS011;1444;49.166;7.312;2023-12-20T11:19:09;22.37;;;3.03;;
2872;SDS011;1444;49.166;7.312;2023-12-20T11:21:39;5.80;;;2.40;;
2872;SDS011;1444;49.166;7.312;2023-12-20T11:24:06;17.47;;;2.30;;
2872;SDS011;1444;49.166;7.312;2023-12-20T11:26:33;13.97;;;3.47;;
2872;SDS011;1444;49.166;7.312;2023-12-20T11:32:00;32.40;;;4.97;;
2872;SDS011;1444;49.166;7.312;2023-12-20T11:34:27;9.73;;;3.13;;
2872;SDS011;1444;49.166;7.312;2023-12-20T11:36:57;9.53;;;2.60;;
2872;SDS011;1444;49.166;7.312;2023-12-20T11:39:25;10.30;;;3.17;;
2872;SDS011;1444;49.166;7.312;2023-12-20T11:41:53;7.87;;;2.03;;
2872;SDS011;1444;49.166;7.312;2023-12-20T11:44:22;6.03;;;1.80;;
2872;SDS011;1444;49.166;7.312;2023-12-20T11:46:52;13.20;;;3.17;;
2872;SDS011;1444;49.166;7.312;2023-12-20T11:49:22;7.60;;;2.53;;
2872;SDS011;1444;49.166;7.312;2023-12-20T11:51:50;2.93;;;2.03;;
2872;SDS011;1444;49.166;7.312;2023-12-20T11:54:17;2.40;;;1.40;;
2872;SDS011;1444;49.166;7.312;2023-12-20T11:56:44;7.47;;;2.60;;
2872;SDS011;1444;49.166;7.312;2023-12-20T11:59:12;12.20;;;1.90;;
2872;SDS011;1444;49.166;7.312;2023-12-20T12:01:39;12.47;;;2.00;;
2872;SDS011;1444;49.166;7.312;2023-12-20T12:04:07;13.97;;;4.00;;
2872;SDS011;1444;49.166;7.312;2023-12-20T12:06:35;20.47;;;3.87;;
2872;SDS011;1444;49.166;7.312;2023-12-20T12:09:02;7.23;;;2.37;;
2872;SDS011;1444;49.166;7.312;2023-12-20T12:11:29;3.90;;;1.60;;
2872;SDS011;1444;49.166;7.312;2023-12-20T12:13:56;2.43;;;1.13;;
2872;SDS011;1444;49.166;7.312;2023-12-20T12:16:23;3.10;;;1.63;;
2872;SDS011;1444;49.166;7.312;2023-12-20T12:18:56;10.80;;;2.13;;
2872;SDS011;1444;49.166;7.312;2023-12-20T12:21:25;7.07;;;2.37;;
2872;SDS011;1444;49.166;7.312;2023-12-20T12:23:52;11.53;;;3.63;;
2872;SDS011;1444;49.166;7.312;2023-12-20T12:26:19;15.47;;;3.70;;
2872;SDS011;1444;49.166;7.312;2023-12-20T12:28:46;6.33;;;2.27;;
2872;SDS011;1444;49.166;7.312;2023-12-20T12:31:13;5.53;;;2.40;;
2872;SDS011;1444;49.166;7.312;2023-12-20T12:33:41;10.63;;;3.10;;
2872;SDS011;1444;49.166;7.312;2023-12-20T12:36:08;12.87;;;3.50;;
2872;SDS011;1444;49.166;7.312;2023-12-20T12:38:37;4.90;;;2.20;;
2872;SDS011;1444;49.166;7.312;2023-12-20T12:41:04;25.93;;;3.03;;
2872;SDS011;1444;49.166;7.312;2023-12-20T12:43:32;10.73;;;2.00;;
2872;SDS011;1444;49.166;7.312;2023-12-20T12:45:59;3.90;;;1.87;;
2872;SDS011;1444;49.166;7.312;2023-12-20T12:48:26;10.77;;;2.73;;
2872;SDS011;1444;49.166;7.312;2023-12-20T12:50:54;2.33;;;1.50;;
2872;SDS011;1444;49.166;7.312;2023-12-20T12:53:24;14.00;;;2.53;;
2872;SDS011;1444;49.166;7.312;2023-12-20T12:55:53;8.30;;;2.10;;
2872;SDS011;1444;49.166;7.312;2023-12-20T12:58:20;7.87;;;1.70;;
2872;SDS011;1444;49.166;7.312;2023-12-20T13:00:47;5.00;;;1.80;;
2872;SDS011;1444;49.166;7.312;2023-12-20T13:03:14;12.13;;;3.90;;
2872;SDS011;1444;49.166;7.312;2023-12-20T13:05:41;4.53;;;2.37;;
2872;SDS011;1444;49.166;7.312;2023-12-20T13:08:08;6.90;;;2.10;;
2872;SDS011;1444;49.166;7.312;2023-12-20T13:10:37;11.70;;;2.60;;
2872;SDS011;1444;49.166;7.312;2023-12-20T13:13:05;4.97;;;1.97;;
2872;SDS011;1444;49.166;7.312;2023-12-20T13:15:32;18.83;;;2.83;;
2872;SDS011;1444;49.166;7.312;2023-12-20T13:17:59;9.17;;;1.80;;
2872;SDS011;1444;49.166;7.312;2023-12-20T13:20:26;6.87;;;2.30;;
2872;SDS011;1444;49.166;7.312;2023-12-20T13:22:53;12.93;;;2.80;;
2872;SDS011;1444;49.166;7.312;2023-12-20T13:25:19;6.47;;;2.40;;
2872;SDS011;1444;49.166;7.312;2023-12-20T13:27:46;5.10;;;2.23;;
2872;SDS011;1444;49.166;7.312;2023-12-20T13:30:15;3.90;;;1.97;;
2872;SDS011;1444;49.166;7.312;2023-12-20T13:32:43;4.77;;;1.70;;
2872;SDS011;1444;49.166;7.312;2023-12-20T13:35:10;10.13;;;2.37;;
2872;SDS011;1444;49.166;7.312;2023-12-20T13:37:37;4.10;;;1.23;;
2872;SDS011;1444;49.166;7.312;2023-12-20T13:40:05;6.43;;;3.00;;
2872;SDS011;1444;49.166;7.312;2023-12-20T13:42:33;5.60;;;2.37;;
2872;SDS011;1444;49.166;7.312;2023-12-20T13:45:00;10.17;;;3.60;;
2872;SDS011;1444;49.166;7.312;2023-12-20T13:47:31;4.17;;;2.03;;
2872;SDS011;1444;49.166;7.312;2023-12-20T13:49:58;10.70;;;2.17;;
2872;SDS011;1444;49.166;7.312;2023-12-20T13:52:24;8.90;;;2.60;;
2872;SDS011;1444;49.166;7.312;2023-12-20T13:54:51;7.70;;;1.57;;
2872;SDS011;1444;49.166;7.312;2023-12-20T13:57:18;20.13;;;2.70;;
2872;SDS011;1444;49.166;7.312;2023-12-20T13:59:45;28.37;;;3.33;;
2872;SDS011;1444;49.166;7.312;2023-12-20T14:02:12;15.13;;;3.53;;
2872;SDS011;1444;49.166;7.312;2023-12-20T14:04:41;10.50;;;2.30;;
2872;SDS011;1444;49.166;7.312;2023-12-20T14:07:08;4.93;;;2.27;;
2872;SDS011;1444;49.166;7.312;2023-12-20T14:09:35;9.80;;;2.80;;
2872;SDS011;1444;49.166;7.312;2023-12-20T14:12:02;5.40;;;1.80;;
2872;SDS011;1444;49.166;7.312;2023-12-20T14:14:30;4.00;;;2.50;;
2872;SDS011;1444;49.166;7.312;2023-12-20T14:16:56;3.83;;;1.73;;
2872;SDS011;1444;49.166;7.312;2023-12-20T14:19:23;26.90;;;4.07;;
2872;SDS011;1444;49.166;7.312;2023-12-20T14:21:51;11.83;;;2.90;;
2872;SDS011;1444;49.166;7.312;2023-12-20T14:24:18;10.53;;;2.90;;
2872;SDS011;1444;49.166;7.312;2023-12-20T14:26:45;6.00;;;2.17;;
2872;SDS011;1444;49.166;7.312;2023-12-20T14:29:12;6.50;;;2.10;;
2872;SDS011;1444;49.166;7.312;2023-12-20T14:31:39;15.77;;;1.60;;
2872;SDS011;1444;49.166;7.312;2023-12-20T14:34:06;6.60;;;1.90;;
2872;SDS011;1444;49.166;7.312;2023-12-20T14:36:34;9.50;;;2.20;;
2872;SDS011;1444;49.166;7.312;2023-12-20T14:39:02;3.37;;;1.43;;
2872;SDS011;1444;49.166;7.312;2023-12-20T14:41:29;3.73;;;2.07;;
2872;SDS011;1444;49.166;7.312;2023-12-20T14:43:56;4.70;;;1.13;;
2872;SDS011;1444;49.166;7.312;2023-12-20T14:46:24;3.20;;;2.37;;
2872;SDS011;1444;49.166;7.312;2023-12-20T14:48:51;3.60;;;1.70;;
2872;SDS011;1444;49.166;7.312;2023-12-20T14:51:19;8.30;;;1.87;;
2872;SDS011;1444;49.166;7.312;2023-12-20T14:53:45;2.83;;;1.30;;
2872;SDS011;1444;49.166;7.312;2023-12-20T14:56:14;2.17;;;1.50;;
2872;SDS011;1444;49.166;7.312;2023-12-20T14:58:41;5.53;;;1.80;;
2872;SDS011;1444;49.166;7.312;2023-12-20T15:01:08;2.87;;;1.80;;
2872;SDS011;1444;49.166;7.312;2023-12-20T15:03:34;2.30;;;1.50;;
2872;SDS011;1444;49.166;7.312;2023-12-20T15:06:01;5.73;;;1.83;;
2872;SDS011;1444;49.166;7.312;2023-12-20T15:08:28;9.30;;;2.13;;
2872;SDS011;1444;49.166;7.312;2023-12-20T15:10:55;2.50;;;1.57;;
2872;SDS011;1444;49.166;7.312;2023-12-20T15:13:23;9.93;;;2.43;;
2872;SDS011;1444;49.166;7.312;2023-12-20T15:15:50;4.63;;;1.50;;